Time;durP1;ratioP1;P1;durP2;ratioP2;P2;SDS_P1;SDS_P2;PMS_P1;PMS_P2;Temp;Humidity;BMP_temperature;BMP_pressure;BME280_temperature;BME280_humidity;BME280_pressure;Samples;Min_cycle;Max_cycle;Signal;HPM_P1;HPM_P2
2021/08/15 00:02:00;;;;;;;11.53;3.73;;;;;;;-145.18;100.00;60484.78;5060801;28;20024;-67
2021/08/15 00:04:25;;;;;;;6.80;3.30;;;;;;;-145.18;100.00;60484.78;5061107;28;20186;-67
2021/08/15 00:06:52;;;;;;;7.97;3.53;;;;;;;-145.18;100.00;60484.78;5061209;28;20028;-67
2021/08/15 00:09:18;;;;;;;10.77;4.30;;;;;;;-145.18;100.00;60484.78;5061167;28;20473;-67
2021/08/15 00:11:44;;;;;;;9.70;3.90;;;;;;;-145.18;100.00;60484.78;5061426;28;20112;-67
2021/08/15 00:14:09;;;;;;;12.53;5.07;;;;;;;-145.18;100.00;60484.78;5062333;28;20025;-67
2021/08/15 00:16:37;;;;;;;10.00;3.77;;;;;;;-145.18;100.00;60484.78;5064879;28;20033;-67
2021/08/15 00:19:05;;;;;;;15.60;4.40;;;;;;;-145.18;100.00;60484.78;5065066;28;20040;-67
2021/08/15 00:21:37;;;;;;;14.23;4.40;;;;;;;-145.18;100.00;60484.78;5065294;28;20103;-67
2021/08/15 00:24:04;;;;;;;12.93;4.50;;;;;;;-145.18;100.00;60484.78;5064073;28;20074;-67
2021/08/15 00:26:30;;;;;;;12.57;4.33;;;;;;;-145.18;100.00;60484.78;5064791;28;20051;-67
2021/08/15 00:28:55;;;;;;;11.20;4.33;;;;;;;-145.18;100.00;60484.78;5064950;28;20497;-67
2021/08/15 00:31:21;;;;;;;15.73;4.80;;;;;;;-145.18;100.00;60484.78;5064561;28;20029;-67
2021/08/15 00:33:47;;;;;;;15.70;4.60;;;;;;;-145.18;100.00;60484.78;5068865;28;20428;-67
2021/08/15 00:36:12;;;;;;;11.90;5.07;;;;;;;-145.18;100.00;60484.78;5065383;28;20063;-68
2021/08/15 00:38:38;;;;;;;9.90;4.23;;;;;;;-145.18;100.00;60484.78;5064760;28;20600;-68
2021/08/15 00:41:03;;;;;;;13.13;4.97;;;;;;;-145.18;100.00;60484.78;5064583;28;20029;-68
2021/08/15 00:43:31;;;;;;;10.93;4.27;;;;;;;-145.18;100.00;60484.78;5064561;28;20054;-68
2021/08/15 00:45:57;;;;;;;12.03;4.40;;;;;;;-145.18;100.00;60484.78;5064418;28;20340;-68
2021/08/15 00:48:23;;;;;;;10.93;4.63;;;;;;;-145.18;100.00;60484.78;5063896;28;20020;-67
2021/08/15 00:50:49;;;;;;;10.27;4.20;;;;;;;-145.18;100.00;60484.78;5064540;28;20023;-68
2021/08/15 00:53:14;;;;;;;10.60;4.10;;;;;;;-145.18;100.00;60484.78;5063904;28;20078;-68
2021/08/15 00:55:41;;;;;;;13.30;4.60;;;;;;;-145.18;100.00;60484.78;5063765;28;20032;-68
2021/08/15 00:58:07;;;;;;;13.17;4.63;;;;;;;-145.18;100.00;60484.78;5064236;28;20025;-68
2021/08/15 01:00:34;;;;;;;16.80;4.57;;;;;;;-145.18;100.00;60484.78;5064199;28;20044;-67
2021/08/15 01:03:00;;;;;;;14.20;4.50;;;;;;;-145.18;100.00;60484.78;5064510;28;20103;-67
2021/08/15 01:08:01;;;;;;;15.83;4.73;;;;;;;-145.18;100.00;60484.78;5077621;28;20055;-66
2021/08/15 01:10:27;;;;;;;12.30;4.57;;;;;;;-145.18;100.00;60484.78;5079725;28;20047;-66
2021/08/15 01:12:52;;;;;;;16.40;4.93;;;;;;;-145.18;100.00;60484.78;5079945;28;20487;-66
2021/08/15 01:15:19;;;;;;;15.63;5.17;;;;;;;-145.18;100.00;60484.78;5078239;28;20032;-67
2021/08/15 01:17:45;;;;;;;9.40;4.50;;;;;;;-145.18;100.00;60484.78;5080734;28;20114;-67
2021/08/15 01:20:11;;;;;;;13.30;4.80;;;;;;;-145.18;100.00;60484.78;5081267;28;20388;-67
2021/08/15 01:22:42;;;;;;;11.63;4.50;;;;;;;-145.18;100.00;60484.78;5080598;28;20162;-67
2021/08/15 01:25:08;;;;;;;11.30;4.40;;;;;;;-145.18;100.00;60484.78;5078603;28;20024;-67
2021/08/15 01:27:38;;;;;;;11.97;4.83;;;;;;;-145.18;100.00;60484.78;5080797;28;20582;-67
2021/08/15 01:30:06;;;;;;;11.80;4.43;;;;;;;-145.18;100.00;60484.78;5080391;28;20034;-67
2021/08/15 01:32:32;;;;;;;12.23;4.63;;;;;;;-145.18;100.00;60484.78;5079680;28;20028;-67
2021/08/15 01:35:01;;;;;;;11.33;4.90;;;;;;;-145.18;100.00;60484.78;5080020;28;20035;-67
2021/08/15 01:37:27;;;;;;;10.13;4.60;;;;;;;-145.18;100.00;60484.78;5080515;28;20223;-67
2021/08/15 01:39:52;;;;;;;14.23;5.30;;;;;;;-145.18;100.00;60484.78;5080118;28;20027;-67
2021/08/15 01:42:18;;;;;;;11.33;4.53;;;;;;;-145.18;100.00;60484.78;5074939;28;20066;-67
2021/08/15 01:44:43;;;;;;;13.33;4.33;;;;;;;-145.18;100.00;60484.78;5067810;28;20028;-67
2021/08/15 01:47:12;;;;;;;14.20;4.83;;;;;;;-145.18;100.00;60484.78;5079370;28;20031;-67
2021/08/15 01:49:37;;;;;;;12.37;4.03;;;;;;;-145.18;100.00;60484.78;5083652;28;20048;-67
2021/08/15 01:52:07;;;;;;;11.50;3.83;;;;;;;-145.18;100.00;60484.78;5083563;28;20119;-67
2021/08/15 01:54:32;;;;;;;9.50;3.60;;;;;;;-145.18;100.00;60484.78;5082551;28;20039;-67
2021/08/15 01:56:58;;;;;;;10.27;4.10;;;;;;;-145.18;100.00;60484.78;5083046;28;20475;-67
2021/08/15 01:59:26;;;;;;;10.20;3.63;;;;;;;-145.18;100.00;60484.78;5082804;28;20028;-67
2021/08/15 02:01:52;;;;;;;11.17;4.03;;;;;;;-145.18;100.00;60484.78;5083344;28;20032;-67
2021/08/15 02:04:18;;;;;;;10.47;4.53;;;;;;;-145.18;100.00;60484.78;5075518;28;20318;-67
2021/08/15 02:06:43;;;;;;;8.17;3.83;;;;;;;-145.18;100.00;60484.78;5082490;28;20044;-67
2021/08/15 02:09:09;;;;;;;12.90;3.97;;;;;;;-145.18;100.00;60484.78;5077604;28;20029;-70
2021/08/15 02:11:34;;;;;;;7.80;3.97;;;;;;;-145.18;100.00;60484.78;5082514;28;20673;-71
2021/08/15 02:14:00;;;;;;;14.87;4.87;;;;;;;-145.18;100.00;60484.78;5082241;28;20036;-71
2021/08/15 02:16:25;;;;;;;8.57;3.77;;;;;;;-145.18;100.00;60484.78;5081863;28;20038;-71
2021/08/15 02:18:51;;;;;;;13.50;4.20;;;;;;;-145.18;100.00;60484.78;5078159;28;20031;-71
2021/08/15 02:21:16;;;;;;;11.17;3.97;;;;;;;-145.18;100.00;60484.78;5076094;28;20028;-71
2021/08/15 02:23:41;;;;;;;10.83;4.70;;;;;;;-145.18;100.00;60484.78;5080005;28;20036;-71
2021/08/15 02:26:07;;;;;;;17.93;4.70;;;;;;;-145.18;100.00;60484.78;5080161;28;20468;-71
2021/08/15 02:28:33;;;;;;;11.43;4.30;;;;;;;-145.18;100.00;60484.78;5080763;28;20016;-71
2021/08/15 02:30:58;;;;;;;10.30;4.37;;;;;;;-145.18;100.00;60484.78;5081260;28;20702;-71
2021/08/15 02:33:23;;;;;;;12.40;4.53;;;;;;;-145.18;100.00;60484.78;5081433;28;20039;-71
2021/08/15 02:35:49;;;;;;;12.17;4.30;;;;;;;-145.18;100.00;60484.78;5075920;28;20130;-71
2021/08/15 02:38:14;;;;;;;16.20;4.60;;;;;;;-145.18;100.00;60484.78;5082352;28;20084;-71
2021/08/15 02:40:40;;;;;;;15.00;4.80;;;;;;;-145.18;100.00;60484.78;5078533;28;20028;-71
2021/08/15 02:43:06;;;;;;;10.60;4.87;;;;;;;-145.18;100.00;60484.78;5082107;28;20049;-71
2021/08/15 02:45:31;;;;;;;14.53;4.67;;;;;;;-145.18;100.00;60484.78;5077151;28;20154;-71
2021/08/15 02:47:57;;;;;;;11.97;4.63;;;;;;;-145.18;100.00;60484.78;5082043;28;20023;-71
2021/08/15 02:50:22;;;;;;;12.10;4.50;;;;;;;-145.18;100.00;60484.78;5081974;28;20032;-71
2021/08/15 02:52:48;;;;;;;13.57;5.03;;;;;;;-145.18;100.00;60484.78;5082669;28;20024;-71
2021/08/15 02:55:14;;;;;;;15.53;5.13;;;;;;;-145.18;100.00;60484.78;5082530;28;20680;-71
2021/08/15 02:57:40;;;;;;;12.50;4.63;;;;;;;-145.18;100.00;60484.78;5082321;28;20020;-71
2021/08/15 03:00:08;;;;;;;12.10;5.40;;;;;;;-145.18;100.00;60484.78;5081650;28;20680;-71
2021/08/15 03:02:33;;;;;;;14.87;5.07;;;;;;;-145.18;100.00;60484.78;5082551;28;20020;-71
2021/08/15 03:04:59;;;;;;;14.43;5.13;;;;;;;-145.18;100.00;60484.78;5080941;28;20035;-71
2021/08/15 03:07:26;;;;;;;10.77;4.70;;;;;;;-145.18;100.00;60484.78;5081173;28;20047;-71
2021/08/15 03:09:51;;;;;;;12.47;5.10;;;;;;;-145.18;100.00;60484.78;5081559;28;20032;-71
2021/08/15 03:12:17;;;;;;;15.53;4.93;;;;;;;-145.18;100.00;60484.78;5082112;28;20020;-71
2021/08/15 03:14:42;;;;;;;14.10;5.07;;;;;;;-145.18;100.00;60484.78;5079970;28;20111;-71
2021/08/15 03:17:23;;;;;;;11.07;4.63;;;;;;;-145.18;100.00;60484.78;5088315;28;20514;-72
2021/08/15 03:19:49;;;;;;;12.77;5.27;;;;;;;-145.18;100.00;60484.78;5079458;28;20031;-70
2021/08/15 03:22:14;;;;;;;15.40;4.57;;;;;;;-145.18;100.00;60484.78;5082179;28;20053;-70
2021/08/15 03:24:40;;;;;;;12.87;5.03;;;;;;;-145.18;100.00;60484.78;5075399;28;20028;-70
2021/08/15 03:27:05;;;;;;;14.80;4.80;;;;;;;-145.18;100.00;60484.78;5082250;28;20142;-70
2021/08/15 03:29:31;;;;;;;13.93;5.43;;;;;;;-145.18;100.00;60484.78;5081559;28;20024;-70
2021/08/15 03:31:57;;;;;;;15.67;5.60;;;;;;;-145.18;100.00;60484.78;5082122;28;20024;-70
2021/08/15 03:34:22;;;;;;;17.13;5.30;;;;;;;-145.18;100.00;60484.78;5078726;28;20024;-70
2021/08/15 03:36:48;;;;;;;13.20;4.93;;;;;;;-145.18;100.00;60484.78;5082042;28;20043;-70
2021/08/15 03:39:14;;;;;;;12.53;4.77;;;;;;;-145.18;100.00;60484.78;5078877;28;20019;-70
2021/08/15 03:41:40;;;;;;;17.07;5.17;;;;;;;-145.18;100.00;60484.78;5082450;28;20035;-70
2021/08/15 03:44:06;;;;;;;10.93;4.87;;;;;;;-145.18;100.00;60484.78;5076257;28;20412;-70
2021/08/15 03:46:31;;;;;;;10.00;4.57;;;;;;;-145.18;100.00;60484.78;5082297;28;20065;-70
2021/08/15 03:48:57;;;;;;;12.17;5.27;;;;;;;-145.18;100.00;60484.78;5078287;28;20032;-70
2021/08/15 03:51:22;;;;;;;13.30;4.80;;;;;;;-145.18;100.00;60484.78;5085933;28;20034;-70
2021/08/15 03:53:48;;;;;;;13.63;5.20;;;;;;;-145.18;100.00;60484.78;5081767;28;20366;-70
2021/08/15 03:56:13;;;;;;;10.17;4.43;;;;;;;-145.18;100.00;60484.78;5085423;28;20052;-70
2021/08/15 03:58:39;;;;;;;14.17;4.33;;;;;;;-145.18;100.00;60484.78;5082386;28;20121;-70
2021/08/15 04:01:04;;;;;;;12.87;5.00;;;;;;;-145.18;100.00;60484.78;5085561;28;20028;-68
2021/08/15 04:03:30;;;;;;;14.47;5.37;;;;;;;-145.18;100.00;60484.78;5085770;28;20127;-68
2021/08/15 04:05:57;;;;;;;10.20;4.83;;;;;;;-145.18;100.00;60484.78;5083803;28;20099;-68
2021/08/15 04:08:23;;;;;;;14.13;5.03;;;;;;;-145.18;100.00;60484.78;5084613;28;20024;-68
2021/08/15 04:10:49;;;;;;;12.67;4.97;;;;;;;-145.18;100.00;60484.78;5083114;28;20520;-68
2021/08/15 04:13:14;;;;;;;12.20;4.20;;;;;;;-145.18;100.00;60484.78;5085383;28;20028;-68
2021/08/15 04:15:40;;;;;;;13.33;5.57;;;;;;;-145.18;100.00;60484.78;5078531;28;20052;-68
2021/08/15 04:18:05;;;;;;;13.50;4.87;;;;;;;-145.18;100.00;60484.78;5085755;28;20112;-68
2021/08/15 04:20:30;;;;;;;13.53;5.20;;;;;;;-145.18;100.00;60484.78;5083153;28;20050;-68
2021/08/15 04:22:56;;;;;;;13.33;5.00;;;;;;;-145.18;100.00;60484.78;5085398;28;20038;-69
2021/08/15 04:25:21;;;;;;;13.43;5.70;;;;;;;-145.18;100.00;60484.78;5074645;28;20470;-69
2021/08/15 04:27:47;;;;;;;16.57;5.03;;;;;;;-145.18;100.00;60484.78;5085379;28;20051;-69
2021/08/15 04:30:13;;;;;;;14.90;5.37;;;;;;;-145.18;100.00;60484.78;5081450;28;20028;-69
2021/08/15 04:32:38;;;;;;;11.97;4.60;;;;;;;-145.18;100.00;60484.78;5084903;28;20040;-69
2021/08/15 04:35:05;;;;;;;16.73;5.37;;;;;;;-145.18;100.00;60484.78;5076428;28;20063;-69
2021/08/15 04:37:31;;;;;;;16.40;5.27;;;;;;;-145.18;100.00;60484.78;5084400;28;20464;-69
2021/08/15 04:39:56;;;;;;;13.10;6.00;;;;;;;-145.18;100.00;60484.78;5077017;28;20030;-69
2021/08/15 04:42:22;;;;;;;14.93;5.30;;;;;;;-145.18;100.00;60484.78;5077097;28;20032;-69
2021/08/15 04:44:48;;;;;;;14.37;5.30;;;;;;;-145.18;100.00;60484.78;5078501;28;20075;-69
2021/08/15 04:47:13;;;;;;;14.70;4.87;;;;;;;-145.18;100.00;60484.78;5084838;28;20039;-70
2021/08/15 04:49:39;;;;;;;15.60;5.60;;;;;;;-145.18;100.00;60484.78;5079514;28;20028;-69
2021/08/15 04:52:05;;;;;;;15.43;4.77;;;;;;;-145.18;100.00;60484.78;5084771;28;20100;-69
2021/08/15 04:54:30;;;;;;;14.20;5.20;;;;;;;-145.18;100.00;60484.78;5081086;28;20475;-69
2021/08/15 04:56:57;;;;;;;14.13;5.27;;;;;;;-145.18;100.00;60484.78;5084822;28;20103;-69
2021/08/15 04:59:23;;;;;;;14.20;5.00;;;;;;;-145.18;100.00;60484.78;5081745;28;20111;-69
2021/08/15 05:01:49;;;;;;;12.73;5.07;;;;;;;-145.18;100.00;60484.78;5083557;28;20035;-69
2021/08/15 05:04:15;;;;;;;12.43;5.07;;;;;;;-145.18;100.00;60484.78;5083688;28;20027;-69
2021/08/15 05:06:41;;;;;;;16.63;4.90;;;;;;;-145.18;100.00;60484.78;5084595;28;20068;-69
2021/08/15 05:09:06;;;;;;;13.40;4.90;;;;;;;-145.18;100.00;60484.78;5077697;28;20025;-69
2021/08/15 05:11:32;;;;;;;19.60;5.37;;;;;;;-145.18;100.00;60484.78;5078278;28;20154;-69
2021/08/15 05:13:57;;;;;;;15.67;5.23;;;;;;;-145.18;100.00;60484.78;5077760;28;20050;-69
2021/08/15 05:16:23;;;;;;;10.50;4.17;;;;;;;-145.18;100.00;60484.78;5078140;28;20119;-69
2021/08/15 05:18:49;;;;;;;17.97;5.37;;;;;;;-145.18;100.00;60484.78;5083003;28;20031;-69
2021/08/15 05:21:14;;;;;;;15.97;5.13;;;;;;;-145.18;100.00;60484.78;5084475;28;20073;-69
2021/08/15 05:23:40;;;;;;;13.43;4.60;;;;;;;-145.18;100.00;60484.78;5081120;28;20056;-69
2021/08/15 05:26:06;;;;;;;12.40;4.80;;;;;;;-145.18;100.00;60484.78;5078015;28;20024;-69
2021/08/15 05:28:32;;;;;;;13.73;5.40;;;;;;;-145.18;100.00;60484.78;5082176;28;20031;-69
2021/08/15 05:30:58;;;;;;;10.87;5.13;;;;;;;-145.18;100.00;60484.78;5077679;28;20024;-69
2021/08/15 05:33:23;;;;;;;15.20;4.97;;;;;;;-145.18;100.00;60484.78;5083459;28;20057;-69
2021/08/15 05:35:49;;;;;;;13.07;5.20;;;;;;;-145.18;100.00;60484.78;5083639;28;20024;-69
2021/08/15 05:38:14;;;;;;;17.43;5.17;;;;;;;-145.18;100.00;60484.78;5083979;28;20469;-69
2021/08/15 05:40:40;;;;;;;11.30;5.10;;;;;;;-145.18;100.00;60484.78;5082829;28;20492;-69
2021/08/15 05:43:05;;;;;;;13.37;4.77;;;;;;;-145.18;100.00;60484.78;5083445;28;20529;-69
2021/08/15 05:45:31;;;;;;;8.33;4.43;;;;;;;-145.18;100.00;60484.78;5078240;28;20031;-69
2021/08/15 05:48:00;;;;;;;12.53;4.90;;;;;;;-145.18;100.00;60484.78;5083662;28;20024;-69
2021/08/15 05:50:25;;;;;;;11.57;5.03;;;;;;;-145.18;100.00;60484.78;5083269;28;20066;-69
2021/08/15 05:52:54;;;;;;;12.13;4.80;;;;;;;-145.18;100.00;60484.78;5083032;28;20098;-69
2021/08/15 05:55:20;;;;;;;12.73;5.07;;;;;;;-145.18;100.00;60484.78;5082994;28;20023;-69
2021/08/15 05:57:45;;;;;;;14.60;5.77;;;;;;;-145.18;100.00;60484.78;5083400;28;20027;-69
2021/08/15 06:00:11;;;;;;;15.60;5.77;;;;;;;-145.18;100.00;60484.78;5080655;28;20534;-69
2021/08/15 06:02:37;;;;;;;15.67;5.63;;;;;;;-145.18;100.00;60484.78;5082726;28;20058;-69
2021/08/15 06:05:02;;;;;;;11.67;5.30;;;;;;;-145.18;100.00;60484.78;5082292;28;20032;-69
2021/08/15 06:07:28;;;;;;;14.73;5.30;;;;;;;-145.18;100.00;60484.78;5082542;28;20729;-69
2021/08/15 06:09:53;;;;;;;13.33;4.93;;;;;;;-145.18;100.00;60484.78;5083110;28;20389;-69
2021/08/15 06:12:19;;;;;;;13.50;5.13;;;;;;;-145.18;100.00;60484.78;5082760;28;20047;-69
2021/08/15 06:14:44;;;;;;;11.23;4.40;;;;;;;-145.18;100.00;60484.78;5087260;28;20036;-69
2021/08/15 06:17:10;;;;;;;10.03;4.73;;;;;;;-145.18;100.00;60484.78;5083401;28;20051;-69
2021/08/15 06:19:35;;;;;;;13.13;5.23;;;;;;;-145.18;100.00;60484.78;5081877;28;20039;-69
2021/08/15 06:22:01;;;;;;;14.00;5.23;;;;;;;-145.18;100.00;60484.78;5083269;28;20112;-69
2021/08/15 06:24:27;;;;;;;18.30;5.30;;;;;;;-145.18;100.00;60484.78;5067667;28;20048;-69
2021/08/15 06:26:54;;;;;;;15.97;4.83;;;;;;;-145.18;100.00;60484.78;5082878;28;20543;-69
2021/08/15 06:29:20;;;;;;;14.37;5.27;;;;;;;-145.18;100.00;60484.78;5074379;28;20032;-69
2021/08/15 06:31:46;;;;;;;10.50;4.40;;;;;;;-145.18;100.00;60484.78;5083146;28;20024;-69
2021/08/15 06:34:11;;;;;;;13.30;5.60;;;;;;;-145.18;100.00;60484.78;5075571;28;20473;-69
2021/08/15 06:36:37;;;;;;;9.20;4.53;;;;;;;-145.18;100.00;60484.78;5082852;28;20020;-69
2021/08/15 06:39:05;;;;;;;12.00;5.20;;;;;;;-145.18;100.00;60484.78;5076737;28;20456;-69
2021/08/15 06:41:31;;;;;;;11.73;5.10;;;;;;;-145.18;100.00;60484.78;5082824;28;20036;-68
2021/08/15 06:43:57;;;;;;;12.25;5.25;;;;;;;-145.18;100.00;60484.78;5077340;28;20039;-69
2021/08/15 06:46:23;;;;;;;14.93;4.90;;;;;;;-145.18;100.00;60484.78;5082298;28;20024;-69
2021/08/15 06:48:49;;;;;;;12.65;5.18;;;;;;;-145.18;100.00;60484.78;5078117;28;20411;-68
2021/08/15 06:51:14;;;;;;;11.23;4.68;;;;;;;-145.18;100.00;60484.78;5082525;28;20028;-68
2021/08/15 06:53:40;;;;;;;13.00;5.00;;;;;;;-145.18;100.00;60484.78;5079387;28;20031;-68
2021/08/15 06:56:08;;;;;;;13.52;4.50;;;;;;;-145.18;100.00;60484.78;5080681;28;20716;-69
2021/08/15 06:58:33;;;;;;;9.60;4.85;;;;;;;-145.18;100.00;60484.78;5081553;28;20046;-69
2021/08/15 07:00:59;;;;;;;9.98;4.03;;;;;;;-145.18;100.00;60484.78;5082034;28;20404;-69
2021/08/15 07:03:24;;;;;;;15.32;4.40;;;;;;;-145.18;100.00;60484.78;5082310;28;20032;-69
2021/08/15 07:05:50;;;;;;;11.23;3.83;;;;;;;-145.18;100.00;60484.78;5081472;28;20483;-69
2021/08/15 07:08:16;;;;;;;14.52;3.78;;;;;;;-145.18;100.00;60484.78;5081855;28;20031;-69
2021/08/15 07:10:42;;;;;;;12.75;4.15;;;;;;;-145.18;100.00;60484.78;5081343;28;20070;-69
2021/08/15 07:13:08;;;;;;;10.40;3.67;;;;;;;-145.18;100.00;60484.78;5085769;28;20047;-69
2021/08/15 07:15:34;;;;;;;10.40;3.05;;;;;;;-145.18;100.00;60484.78;5074555;28;20529;-69
2021/08/15 07:17:59;;;;;;;8.27;3.40;;;;;;;-145.18;100.00;60484.78;5075140;28;20153;-69
2021/08/15 07:20:26;;;;;;;7.78;3.30;;;;;;;-145.18;100.00;60484.78;5079552;28;20028;-69
2021/08/15 07:22:52;;;;;;;10.50;3.10;;;;;;;-145.18;100.00;60484.78;5082120;28;20020;-69
2021/08/15 07:25:19;;;;;;;10.20;3.33;;;;;;;-145.18;100.00;60484.78;5077527;28;20031;-69
2021/08/15 07:27:45;;;;;;;8.50;3.35;;;;;;;-145.18;100.00;60484.78;5078502;28;20067;-69
2021/08/15 07:30:12;;;;;;;9.23;3.00;;;;;;;-145.18;100.00;60484.78;5080119;28;20032;-69
2021/08/15 07:32:56;;;;;;;9.27;3.08;;;;;;;-145.18;100.00;60484.78;5082504;28;20038;-69
2021/08/15 07:35:22;;;;;;;7.88;3.13;;;;;;;-145.18;100.00;60484.78;5078671;28;20474;-69
2021/08/15 07:37:48;;;;;;;8.30;2.78;;;;;;;-145.18;100.00;60484.78;5083250;28;20036;-69
2021/08/15 07:40:13;;;;;;;8.75;2.63;;;;;;;-145.18;100.00;60484.78;5078833;28;20032;-69
2021/08/15 07:42:39;;;;;;;9.57;2.90;;;;;;;-145.18;100.00;60484.78;5079596;28;20031;-70
2021/08/15 07:45:06;;;;;;;8.98;2.78;;;;;;;-145.18;100.00;60484.78;5076927;28;20084;-69
2021/08/15 07:47:31;;;;;;;7.03;2.58;;;;;;;-145.18;100.00;60484.78;5082910;28;20107;-69
2021/08/15 07:49:57;;;;;;;7.03;2.63;;;;;;;-145.18;100.00;60484.78;5083192;28;20127;-69
2021/08/15 07:52:22;;;;;;;8.15;2.35;;;;;;;-145.18;100.00;60484.78;5083368;28;20586;-69
2021/08/15 07:54:48;;;;;;;7.97;2.80;;;;;;;-145.18;100.00;60484.78;5082520;28;20062;-69
2021/08/15 07:57:13;;;;;;;7.25;2.55;;;;;;;-145.18;100.00;60484.78;5082571;28;20027;-69
2021/08/15 07:59:39;;;;;;;7.43;2.67;;;;;;;-145.18;100.00;60484.78;5082780;28;20041;-69
2021/08/15 08:02:04;;;;;;;5.38;2.33;;;;;;;-145.18;100.00;60484.78;5082942;28;20032;-69
2021/08/15 08:04:30;;;;;;;7.43;2.53;;;;;;;-145.18;100.00;60484.78;5082994;28;20031;-69
2021/08/15 08:06:57;;;;;;;10.40;3.25;;;;;;;-145.18;100.00;60484.78;5083465;28;20044;-69
2021/08/15 08:09:23;;;;;;;7.47;2.80;;;;;;;-145.18;100.00;60484.78;5082844;28;20054;-69
2021/08/15 08:11:49;;;;;;;9.43;2.65;;;;;;;-145.18;100.00;60484.78;5083355;28;20468;-69
2021/08/15 08:14:15;;;;;;;7.30;3.15;;;;;;;-145.18;100.00;60484.78;5080039;28;20032;-69
2021/08/15 08:16:41;;;;;;;6.30;2.70;;;;;;;-145.18;100.00;60484.78;5078936;28;20032;-69
2021/08/15 08:19:06;;;;;;;6.20;2.58;;;;;;;-145.18;100.00;60484.78;5076847;28;20040;-69
2021/08/15 08:21:32;;;;;;;8.32;2.70;;;;;;;-145.18;100.00;60484.78;5083492;28;20396;-69
2021/08/15 08:23:57;;;;;;;7.30;2.83;;;;;;;-145.18;100.00;60484.78;5077459;28;20036;-69
2021/08/15 08:26:23;;;;;;;11.40;2.92;;;;;;;-145.18;100.00;60484.78;5078930;28;20426;-69
2021/08/15 08:28:48;;;;;;;6.53;2.50;;;;;;;-145.18;100.00;60484.78;5078647;28;20534;-69
2021/08/15 08:31:14;;;;;;;6.60;2.67;;;;;;;-145.18;100.00;60484.78;5078470;28;20032;-68
2021/08/15 08:33:40;;;;;;;7.78;2.65;;;;;;;-145.18;100.00;60484.78;5079994;28;20063;-68
2021/08/15 08:36:05;;;;;;;7.32;2.20;;;;;;;-145.18;100.00;60484.78;5078176;28;20043;-68
2021/08/15 08:38:31;;;;;;;5.80;2.40;;;;;;;-145.18;100.00;60484.78;5080672;28;20115;-68
2021/08/15 08:40:58;;;;;;;8.38;2.90;;;;;;;-145.18;100.00;60484.78;5078311;28;20452;-68
2021/08/15 08:43:24;;;;;;;8.88;3.38;;;;;;;-145.18;100.00;60484.78;5081694;28;20043;-68
2021/08/15 08:45:52;;;;;;;7.78;3.05;;;;;;;-145.18;100.00;60484.78;5077603;28;20453;-69
2021/08/15 08:48:17;;;;;;;8.75;3.30;;;;;;;-145.18;100.00;60484.78;5082640;28;20120;-68
2021/08/15 08:50:43;;;;;;;9.13;4.03;;;;;;;-145.18;100.00;60484.78;5081850;28;20430;-68
2021/08/15 08:53:09;;;;;;;10.57;4.75;;;;;;;-145.18;100.00;60484.78;5082755;28;20055;-68
2021/08/15 08:55:35;;;;;;;11.38;4.60;;;;;;;-145.18;100.00;60484.78;5069655;28;20032;-69
2021/08/15 08:58:00;;;;;;;12.27;4.55;;;;;;;-145.18;100.00;60484.78;5082506;28;20046;-68
2021/08/15 09:00:26;;;;;;;10.52;4.97;;;;;;;-145.18;100.00;60484.78;5078736;28;20036;-68
2021/08/15 09:03:00;;;;;;;10.00;4.50;;;;;;;-145.18;100.00;60484.78;5082102;28;20034;-68
2021/08/15 09:05:31;;;;;;;11.43;4.47;;;;;;;-145.18;100.00;60484.78;5081612;28;20085;-68
2021/08/15 09:07:57;;;;;;;11.57;4.78;;;;;;;-145.18;100.00;60484.78;5082196;28;20051;-68
2021/08/15 09:10:33;;;;;;;9.98;4.40;;;;;;;-145.18;100.00;60484.78;5081323;28;20036;-68
2021/08/15 09:13:07;;;;;;;9.45;4.45;;;;;;;-145.18;100.00;60484.78;5079744;28;20104;-68
2021/08/15 09:15:34;;;;;;;13.85;4.28;;;;;;;-145.18;100.00;60484.78;5080696;28;20611;-68
2021/08/15 09:18:00;;;;;;;11.30;4.65;;;;;;;-145.18;100.00;60484.78;5081931;28;20149;-68
2021/08/15 09:20:38;;;;;;;10.95;5.15;;;;;;;-145.18;100.00;60484.78;5070138;28;20203;-69
2021/08/15 09:23:24;;;;;;;10.82;4.43;;;;;;;-145.18;100.00;60484.78;5077691;28;20031;-68
2021/08/15 09:26:19;;;;;;;10.82;4.53;;;;;;;-145.18;100.00;60484.78;5081589;28;20034;-69
2021/08/15 09:28:47;;;;;;;8.35;3.95;;;;;;;-145.18;100.00;60484.78;5068376;28;20636;-69
2021/08/15 09:31:32;;;;;;;10.50;4.43;;;;;;;-145.18;100.00;60484.78;5081491;28;21023;-69
2021/08/15 09:34:00;;;;;;;9.43;4.25;;;;;;;-145.18;100.00;60484.78;5075982;28;20471;-69
2021/08/15 09:36:33;;;;;;;8.68;3.72;;;;;;;-145.18;100.00;60484.78;5078342;28;20042;-69
2021/08/15 09:39:01;;;;;;;9.50;3.38;;;;;;;-145.18;100.00;60484.78;5076231;28;20036;-69
2021/08/15 09:41:29;;;;;;;10.35;3.40;;;;;;;-145.18;100.00;60484.78;5079373;28;20058;-69
2021/08/15 09:44:20;;;;;;;10.82;3.28;;;;;;;-145.18;100.00;60484.78;5068930;28;20040;-69
2021/08/15 09:47:13;;;;;;;8.75;3.25;;;;;;;-145.18;100.00;60484.78;5070417;28;20501;-69
2021/08/15 09:49:43;;;;;;;9.90;3.17;;;;;;;-145.18;100.00;60484.78;5076041;28;20570;-69
2021/08/15 09:52:17;;;;;;;7.22;2.75;;;;;;;-145.18;100.00;60484.78;5080980;28;20063;-69
2021/08/15 09:54:58;;;;;;;9.48;3.15;;;;;;;-145.18;100.00;60484.78;5077024;28;20046;-69
2021/08/15 09:57:42;;;;;;;8.80;3.10;;;;;;;-145.18;100.00;60484.78;5081204;28;20028;-69
2021/08/15 10:00:40;;;;;;;10.02;3.00;;;;;;;-145.18;100.00;60484.78;5081163;28;20426;-69
2021/08/15 10:03:06;;;;;;;10.60;3.38;;;;;;;-145.18;100.00;60484.78;5049985;28;20083;-69
2021/08/15 10:05:32;;;;;;;11.77;3.45;;;;;;;-145.18;100.00;60484.78;5078259;28;20032;-69
2021/08/15 10:08:00;;;;;;;7.70;3.00;;;;;;;-145.18;100.00;60484.78;5081036;28;20105;-69
2021/08/15 10:10:26;;;;;;;9.35;3.45;;;;;;;-145.18;100.00;60484.78;5080798;28;20034;-69
2021/08/15 10:12:52;;;;;;;6.05;2.67;;;;;;;-145.18;100.00;60484.78;5082645;28;20492;-69
2021/08/15 10:15:17;;;;;;;7.38;2.70;;;;;;;-145.18;100.00;60484.78;5070722;28;20031;-69
2021/08/15 10:17:45;;;;;;;8.82;2.92;;;;;;;-145.18;100.00;60484.78;5080798;28;20173;-69
2021/08/15 10:20:17;;;;;;;7.03;2.60;;;;;;;-145.18;100.00;60484.78;5069346;28;20122;-69
2021/08/15 10:22:44;;;;;;;6.93;2.78;;;;;;;-145.18;100.00;60484.78;5080121;28;20027;-69
2021/08/15 10:25:29;;;;;;;6.55;2.88;;;;;;;-145.18;100.00;60484.78;5075054;28;20795;-69
2021/08/15 10:27:55;;;;;;;8.55;2.63;;;;;;;-145.18;100.00;60484.78;5080803;28;20024;-69
2021/08/15 10:30:43;;;;;;;4.75;2.20;;;;;;;-145.18;100.00;60484.78;5080538;28;20043;-69
2021/08/15 10:33:18;;;;;;;5.85;2.50;;;;;;;-145.18;100.00;60484.78;5080073;28;20036;-69
2021/08/15 10:35:44;;;;;;;10.15;2.90;;;;;;;-145.18;100.00;60484.78;5079734;28;20047;-69
2021/08/15 10:38:35;;;;;;;9.05;3.17;;;;;;;-145.18;100.00;60484.78;5080751;28;20055;-69
2021/08/15 10:41:01;;;;;;;6.70;2.70;;;;;;;-145.18;100.00;60484.78;5068795;28;20048;-69
2021/08/15 10:43:57;;;;;;;7.28;2.63;;;;;;;-145.18;100.00;60484.78;5079179;28;20334;-69
2021/08/15 10:46:23;;;;;;;6.20;2.60;;;;;;;-145.18;100.00;60484.78;5069886;28;20039;-69
2021/08/15 10:49:08;;;;;;;6.60;2.40;;;;;;;-145.18;100.00;60484.78;5076723;28;20397;-69
2021/08/15 10:51:50;;;;;;;7.72;2.20;;;;;;;-145.18;100.00;60484.78;5080688;28;20044;-69
2021/08/15 10:55:01;;;;;;;8.15;2.47;;;;;;;-145.18;100.00;60484.78;5072213;28;20398;-69
2021/08/15 10:57:36;;;;;;;8.50;2.72;;;;;;;-145.18;100.00;60484.78;5042089;28;20524;-69
2021/08/15 11:00:23;;;;;;;6.05;2.50;;;;;;;-145.18;100.00;60484.78;5071508;28;20035;-69
2021/08/15 11:02:48;;;;;;;7.78;2.55;;;;;;;-145.18;100.00;60484.78;5080077;28;20155;-69
2021/08/15 11:05:34;;;;;;;7.40;2.58;;;;;;;-145.18;100.00;60484.78;5069467;28;20036;-69
2021/08/15 11:08:00;;;;;;;5.90;2.08;;;;;;;-145.18;100.00;60484.78;5078095;28;20044;-69
2021/08/15 11:10:25;;;;;;;8.80;2.25;;;;;;;-145.18;100.00;60484.78;5079029;28;20484;-69